Aldrich, Minnesota
Current Conditions -  °F | °C
As of 9:53 AM on Thursday 23 Oct 2014 (Local Time) from KSAZ Reporting Station
Haze Haze  
Wind Chill: 46°   Ceiling: 200
Heat Index: 48°   Visibility: 2.5mi
Dew Point: 46°   Wind: 5mph
Humidity: 93%   Direction: 180°S
Pressure: 29.96"   Gusts: NA
Location:  46.38°N, 94.94°W
Report Text: KSAZ 231453Z AUTO 18004KT 2 1/2SM BR OVC002 09/08 A2996 RMK AO2 VIS 1 1/4V4
Loading
Personal Weather Stations






























Interactive Weather Map
Tropical Storm Tracking
New forecast layout! Learn more

10-Day Weather Forecast

Advertisements
Track Severe Weather on mobile